createdAt,value
2023-05-05T00:02:23.242Z,9.60
2023-05-05T00:04:51.326Z,9.60
2023-05-05T00:07:20.428Z,9.60
2023-05-05T00:09:48.456Z,9.60
2023-05-05T00:12:16.496Z,9.60
2023-05-05T00:14:45.876Z,9.60
2023-05-05T00:17:13.973Z,9.60
2023-05-05T00:19:42.857Z,9.50
2023-05-05T00:22:11.068Z,9.50
2023-05-05T00:24:39.096Z,9.50
2023-05-05T00:27:07.080Z,9.50
2023-05-05T00:29:35.117Z,9.40
2023-05-05T00:32:04.933Z,9.50
2023-05-05T00:34:33.328Z,9.40
2023-05-05T00:37:01.655Z,9.40
2023-05-05T00:39:29.633Z,9.40
2023-05-05T00:41:57.644Z,9.40
2023-05-05T00:44:39.485Z,9.40
2023-05-05T00:47:09.462Z,9.30
2023-05-05T00:49:38.482Z,9.30
2023-05-05T00:52:07.861Z,9.30
2023-05-05T00:54:36.373Z,9.30
2023-05-05T00:57:05.044Z,9.30
2023-05-05T00:59:34.739Z,9.20
2023-05-05T01:02:02.826Z,9.20
2023-05-05T01:04:32.236Z,9.20
2023-05-05T01:07:08.907Z,9.10
2023-05-05T01:10:07.224Z,9.10
2023-05-05T01:12:52.010Z,9.10
2023-05-05T01:15:28.446Z,9.10
2023-05-05T01:18:01.623Z,9.00
2023-05-05T01:20:40.671Z,9.00
2023-05-05T01:23:18.865Z,9.00
2023-05-05T01:26:06.743Z,8.90
2023-05-05T01:28:57.455Z,8.90
2023-05-05T01:31:51.655Z,8.90
2023-05-05T01:34:24.422Z,8.90
2023-05-05T01:36:59.370Z,8.80
2023-05-05T01:39:32.537Z,8.80
2023-05-05T01:42:03.737Z,8.80
2023-05-05T01:44:34.027Z,8.80
2023-05-05T01:47:05.378Z,8.70
2023-05-05T01:49:35.619Z,8.70
2023-05-05T01:52:05.959Z,8.70
2023-05-05T01:54:35.572Z,8.70
2023-05-05T01:57:05.882Z,8.70
2023-05-05T01:59:34.692Z,8.70
2023-05-05T02:02:05.001Z,8.70
2023-05-05T02:04:34.513Z,8.70
2023-05-05T02:07:04.368Z,8.70
2023-05-05T02:09:33.495Z,8.70
2023-05-05T02:12:03.083Z,8.70
2023-05-05T02:14:31.508Z,8.70
2023-05-05T02:17:00.094Z,8.60
2023-05-05T02:19:33.481Z,8.60
2023-05-05T02:22:01.760Z,8.60
2023-05-05T02:24:30.881Z,8.60
2023-05-05T02:27:00.741Z,8.60
2023-05-05T02:29:35.437Z,8.60
2023-05-05T02:32:10.746Z,8.60
2023-05-05T02:34:42.116Z,8.60
2023-05-05T02:37:13.607Z,8.60
2023-05-05T02:39:46.229Z,8.60
2023-05-05T02:42:19.596Z,8.60
2023-05-05T02:44:49.158Z,8.60
2023-05-05T02:47:17.285Z,8.60
2023-05-05T02:49:47.937Z,8.60
2023-05-05T02:52:16.013Z,8.60
2023-05-05T02:54:44.006Z,8.60
2023-05-05T02:57:16.841Z,8.60
2023-05-05T02:59:51.242Z,8.50
2023-05-05T03:02:25.599Z,8.50
2023-05-05T03:05:01.793Z,8.50
2023-05-05T03:07:35.906Z,8.40
2023-05-05T03:10:08.536Z,8.40
2023-05-05T03:12:40.830Z,8.40
2023-05-05T03:15:11.098Z,8.40
2023-05-05T03:17:40.850Z,8.40
2023-05-05T03:20:13.069Z,8.40
2023-05-05T03:22:41.090Z,8.30
2023-05-05T03:25:09.753Z,8.30
2023-05-05T03:27:37.717Z,8.30
2023-05-05T03:30:06.925Z,8.30
2023-05-05T03:32:35.075Z,8.30
2023-05-05T03:35:03.025Z,8.30
2023-05-05T03:37:32.337Z,8.30
2023-05-05T03:40:00.461Z,8.30
2023-05-05T03:42:28.450Z,8.20
2023-05-05T03:44:57.145Z,8.20
2023-05-05T03:47:25.215Z,8.20
2023-05-05T03:49:53.211Z,8.20
2023-05-05T03:52:21.182Z,8.10
2023-05-05T03:54:50.577Z,8.20
2023-05-05T03:57:18.568Z,8.20
2023-05-05T03:59:46.647Z,8.20
2023-05-05T04:02:15.569Z,8.10
2023-05-05T04:04:45.024Z,8.20
2023-05-05T04:07:13.088Z,8.20
2023-05-05T04:09:44.369Z,8.20
2023-05-05T04:12:13.741Z,8.20
2023-05-05T04:14:41.674Z,8.20
2023-05-05T04:17:09.706Z,8.20
2023-05-05T04:19:37.644Z,8.20
2023-05-05T04:22:05.632Z,8.10
2023-05-05T04:24:33.596Z,8.10
2023-05-05T04:27:02.274Z,8.20
2023-05-05T04:29:31.613Z,8.20
2023-05-05T04:31:59.592Z,8.20
2023-05-05T04:34:27.539Z,8.20
2023-05-05T04:36:55.496Z,8.10
2023-05-05T04:39:23.437Z,8.20
2023-05-05T04:41:51.413Z,8.10
2023-05-05T04:44:19.336Z,8.20
2023-05-05T04:46:48.685Z,8.20
2023-05-05T04:49:16.649Z,8.20
2023-05-05T04:51:44.676Z,8.20
2023-05-05T04:54:12.607Z,8.20
2023-05-05T04:56:40.765Z,8.20
2023-05-05T04:59:08.745Z,8.20
2023-05-05T05:01:38.559Z,8.30
2023-05-05T05:04:08.121Z,8.30
2023-05-05T05:06:36.083Z,8.30
2023-05-05T05:09:04.144Z,8.30
2023-05-05T05:11:32.118Z,8.40
2023-05-05T05:14:00.077Z,8.40
2023-05-05T05:16:28.262Z,8.40
2023-05-05T05:18:56.314Z,8.50
2023-05-05T05:21:26.103Z,8.50
2023-05-05T05:23:54.116Z,8.50
2023-05-05T05:26:22.161Z,8.50
2023-05-05T05:28:50.132Z,8.50
2023-05-05T05:31:18.483Z,8.50
2023-05-05T05:33:46.516Z,8.50
2023-05-05T05:36:14.468Z,8.50
2023-05-05T05:38:43.791Z,8.50
2023-05-05T05:41:12.439Z,8.60
2023-05-05T05:43:41.507Z,8.60
2023-05-05T05:46:09.607Z,8.60
2023-05-05T05:48:37.606Z,8.60
2023-05-05T05:51:05.672Z,8.70
2023-05-05T05:53:33.847Z,8.70
2023-05-05T05:56:03.188Z,8.80
2023-05-05T05:58:31.181Z,8.90
2023-05-05T06:01:00.365Z,9.00
2023-05-05T06:03:28.420Z,9.00
2023-05-05T06:05:56.602Z,9.10
2023-05-05T06:08:25.110Z,9.20
2023-05-05T06:10:53.316Z,9.30
2023-05-05T06:13:22.656Z,9.30
2023-05-05T06:15:50.735Z,9.40
2023-05-05T06:18:18.801Z,9.50
2023-05-05T06:20:49.839Z,9.60
2023-05-05T06:23:17.826Z,9.70
2023-05-05T06:25:45.899Z,9.70
2023-05-05T06:28:13.985Z,9.80
2023-05-05T06:30:43.829Z,9.90
2023-05-05T06:33:11.813Z,9.90
2023-05-05T06:35:39.786Z,10.10
2023-05-05T06:38:07.830Z,10.20
2023-05-05T06:40:35.847Z,10.20
2023-05-05T06:43:03.799Z,10.30
2023-05-05T06:45:32.204Z,10.30
2023-05-05T06:48:01.546Z,10.30
2023-05-05T06:50:29.516Z,10.40
2023-05-05T06:52:57.483Z,10.50
2023-05-05T06:55:25.846Z,10.60
2023-05-05T06:57:53.834Z,10.70
2023-05-05T07:00:22.679Z,10.80
2023-05-05T07:02:50.780Z,10.80
2023-05-05T07:05:20.236Z,10.80
2023-05-05T07:07:52.784Z,10.80
2023-05-05T07:10:20.800Z,10.90
2023-05-05T07:12:48.907Z,10.90
2023-05-05T07:15:28.155Z,10.90
2023-05-05T07:17:57.755Z,11.00
2023-05-05T07:20:27.706Z,11.00
2023-05-05T07:22:55.925Z,11.10
2023-05-05T07:25:24.053Z,11.10
2023-05-05T07:27:52.222Z,11.10
2023-05-05T07:30:20.989Z,11.20
2023-05-05T07:32:49.439Z,11.20
2023-05-05T07:35:17.857Z,11.30
2023-05-05T07:37:48.340Z,11.30
2023-05-05T07:40:16.574Z,11.40
2023-05-05T07:42:44.608Z,11.40
2023-05-05T07:45:12.690Z,11.50
2023-05-05T07:47:41.289Z,11.50
2023-05-05T07:50:10.169Z,11.60
2023-05-05T07:52:48.434Z,11.70
2023-05-05T07:55:21.340Z,11.80
2023-05-05T07:57:49.697Z,11.90
2023-05-05T08:00:19.401Z,11.90
2023-05-05T08:02:49.850Z,12.00
2023-05-05T08:05:18.136Z,12.00
2023-05-05T08:07:46.196Z,12.00
2023-05-05T08:10:14.377Z,12.10
2023-05-05T08:12:43.737Z,12.20
2023-05-05T08:15:12.348Z,12.20
2023-05-05T08:17:47.985Z,12.20
2023-05-05T08:20:17.566Z,12.20
2023-05-05T08:22:45.621Z,12.30
2023-05-05T08:25:14.682Z,12.40
2023-05-05T08:27:44.576Z,12.50
2023-05-05T08:30:13.121Z,12.60
2023-05-05T08:32:41.252Z,12.60
2023-05-05T08:35:09.960Z,12.70
2023-05-05T08:37:38.339Z,12.80
2023-05-05T08:40:07.255Z,12.80
2023-05-05T08:42:37.791Z,12.90
2023-05-05T08:45:10.936Z,13.10
2023-05-05T08:47:40.366Z,13.10
2023-05-05T08:50:12.088Z,13.30
2023-05-05T08:52:43.807Z,13.40
2023-05-05T08:55:16.318Z,13.40
2023-05-05T08:57:51.586Z,13.50
2023-05-05T09:00:22.110Z,13.60
2023-05-05T09:02:50.378Z,13.50
2023-05-05T09:05:18.748Z,13.50
2023-05-05T09:07:47.452Z,13.40
2023-05-05T09:10:15.604Z,13.40
2023-05-05T09:12:44.159Z,13.40
2023-05-05T09:15:13.699Z,13.50
2023-05-05T09:17:43.474Z,13.50
2023-05-05T09:20:13.904Z,13.50
2023-05-05T09:22:43.805Z,13.60
2023-05-05T09:25:13.461Z,13.60
2023-05-05T09:27:45.883Z,13.70
2023-05-05T09:30:17.643Z,13.80
2023-05-05T09:32:49.949Z,13.90
2023-05-05T09:35:19.419Z,14.00
2023-05-05T09:37:47.605Z,14.10
2023-05-05T09:40:18.117Z,14.20
2023-05-05T09:42:46.325Z,14.10
2023-05-05T09:45:27.509Z,14.30
2023-05-05T09:48:00.330Z,14.30
2023-05-05T09:50:30.891Z,14.30
2023-05-05T09:53:00.285Z,14.50
2023-05-05T09:55:28.869Z,14.40
2023-05-05T09:57:56.997Z,14.50
2023-05-05T10:00:39.554Z,14.50
2023-05-05T10:03:09.006Z,14.50
2023-05-05T10:05:49.009Z,14.50
2023-05-05T10:08:17.776Z,14.50
2023-05-05T10:10:51.512Z,14.50
2023-05-05T10:13:21.572Z,14.50
2023-05-05T10:15:51.408Z,14.40
2023-05-05T10:18:23.436Z,14.40
2023-05-05T10:21:00.281Z,14.50
2023-05-05T10:23:36.891Z,14.50
2023-05-05T10:26:08.058Z,14.40
2023-05-05T10:28:43.508Z,14.50
2023-05-05T10:31:25.721Z,14.50
2023-05-05T10:34:01.726Z,14.50
2023-05-05T10:36:31.759Z,14.40
2023-05-05T10:39:01.070Z,14.50
2023-05-05T10:41:30.857Z,14.50
2023-05-05T10:44:02.845Z,14.50
2023-05-05T10:46:32.718Z,14.50
2023-05-05T10:49:13.262Z,14.50
2023-05-05T10:51:48.015Z,14.40
2023-05-05T10:54:23.796Z,14.30
2023-05-05T10:56:52.658Z,14.30
2023-05-05T10:59:51.946Z,14.20
2023-05-05T11:02:24.923Z,14.30
2023-05-05T11:05:17.673Z,14.30
2023-05-05T11:07:46.483Z,14.40
2023-05-05T11:10:16.049Z,14.40
2023-05-05T11:13:19.642Z,14.40
2023-05-05T11:15:48.516Z,14.50
2023-05-05T11:18:36.764Z,14.50
2023-05-05T11:21:16.502Z,14.50
2023-05-05T11:23:49.448Z,14.50
2023-05-05T11:26:18.935Z,14.50
2023-05-05T11:28:59.662Z,14.60
2023-05-05T11:31:28.066Z,14.50
2023-05-05T11:34:17.336Z,14.50
2023-05-05T11:36:46.864Z,14.60
2023-05-05T11:39:24.443Z,14.60
2023-05-05T11:42:17.140Z,14.70
2023-05-05T11:44:45.311Z,14.70
2023-05-05T11:47:33.100Z,14.80
2023-05-05T11:50:18.399Z,14.80
2023-05-05T11:52:49.122Z,14.90
2023-05-05T11:55:23.978Z,15.00
2023-05-05T11:57:52.391Z,15.10
2023-05-05T12:00:20.917Z,15.00
2023-05-05T12:02:57.663Z,15.00
2023-05-05T12:05:25.926Z,15.00
2023-05-05T12:07:59.579Z,15.10
2023-05-05T12:10:28.083Z,15.10
2023-05-05T12:12:56.163Z,15.10
2023-05-05T12:15:31.906Z,15.20
2023-05-05T12:18:02.422Z,15.20
2023-05-05T12:20:33.041Z,15.20
2023-05-05T12:23:03.941Z,15.30
2023-05-05T12:25:39.948Z,15.40
2023-05-05T12:28:08.661Z,15.40
2023-05-05T12:30:37.282Z,15.50
2023-05-05T12:33:08.477Z,15.50
2023-05-05T12:35:37.089Z,15.60
2023-05-05T12:38:07.760Z,15.60
2023-05-05T12:40:49.260Z,15.70
2023-05-05T12:43:31.412Z,15.70
2023-05-05T12:46:08.107Z,15.70
2023-05-05T12:48:38.914Z,15.70
2023-05-05T12:51:17.815Z,15.80
2023-05-05T12:53:48.663Z,15.80
2023-05-05T12:56:33.682Z,15.90
2023-05-05T12:59:01.976Z,15.90
2023-05-05T13:01:30.077Z,15.90
2023-05-05T13:04:12.189Z,15.90
2023-05-05T13:06:40.765Z,15.90
2023-05-05T13:09:11.007Z,16.10
2023-05-05T13:11:40.485Z,16.10
2023-05-05T13:14:09.190Z,16.10
2023-05-05T13:16:37.261Z,16.30
2023-05-05T13:19:05.292Z,16.30
2023-05-05T13:21:33.569Z,16.40
2023-05-05T13:24:18.932Z,16.40
2023-05-05T13:26:51.090Z,16.50
2023-05-05T13:29:19.749Z,16.60
2023-05-05T13:31:47.821Z,16.60
2023-05-05T13:34:15.857Z,16.70
2023-05-05T13:36:43.815Z,16.80
2023-05-05T13:39:12.574Z,16.80
2023-05-05T13:41:40.599Z,16.90
2023-05-05T13:44:09.970Z,16.90
2023-05-05T13:46:37.968Z,16.80
2023-05-05T13:49:07.011Z,16.70
2023-05-05T13:51:35.567Z,16.80
2023-05-05T13:54:03.901Z,16.80
2023-05-05T13:56:32.180Z,16.60
2023-05-05T13:59:00.158Z,16.50
2023-05-05T14:01:29.682Z,16.40
2023-05-05T14:03:58.158Z,16.30
2023-05-05T14:06:27.696Z,16.30
2023-05-05T14:08:55.780Z,16.30
2023-05-05T14:11:23.746Z,16.30
2023-05-05T14:13:52.056Z,16.20
2023-05-05T14:16:20.304Z,16.20
2023-05-05T14:18:49.760Z,16.20
2023-05-05T14:21:17.738Z,16.00
2023-05-05T14:23:45.732Z,16.10
2023-05-05T14:26:13.728Z,16.10
2023-05-05T14:28:42.295Z,16.10
2023-05-05T14:31:11.181Z,16.00
2023-05-05T14:33:39.228Z,16.00
2023-05-05T14:36:09.381Z,16.00
2023-05-05T14:38:37.395Z,15.90
2023-05-05T14:41:05.823Z,15.90
2023-05-05T14:43:33.818Z,16.00
2023-05-05T14:46:06.550Z,16.00
2023-05-05T14:48:35.143Z,16.10
2023-05-05T14:51:03.143Z,16.10
2023-05-05T14:53:32.474Z,16.10
2023-05-05T14:56:02.030Z,16.00
2023-05-05T14:58:31.085Z,16.10
2023-05-05T15:01:00.428Z,16.00
2023-05-05T15:03:28.613Z,16.00
2023-05-05T15:05:56.831Z,15.90
2023-05-05T15:08:25.030Z,15.90
2023-05-05T15:10:54.381Z,15.80
2023-05-05T15:13:22.401Z,15.70
2023-05-05T15:15:51.248Z,15.60
2023-05-05T15:18:19.327Z,15.50
2023-05-05T15:20:47.294Z,15.50
2023-05-05T15:23:16.066Z,15.50
2023-05-05T15:25:44.110Z,15.40
2023-05-05T15:28:13.470Z,15.30
2023-05-05T15:30:41.487Z,15.30
2023-05-05T15:33:09.470Z,15.30
2023-05-05T15:35:37.523Z,15.20
2023-05-05T15:38:05.533Z,15.20
2023-05-05T15:40:33.581Z,15.10
2023-05-05T15:43:01.589Z,15.10
2023-05-05T15:45:31.001Z,15.00
2023-05-05T15:48:00.420Z,14.90
2023-05-05T15:50:28.428Z,14.80
2023-05-05T15:52:56.906Z,14.70
2023-05-05T15:55:25.391Z,14.60
2023-05-05T15:57:53.422Z,14.60
2023-05-05T16:00:22.090Z,14.50
2023-05-05T16:02:51.512Z,14.50
2023-05-05T16:05:22.142Z,14.50
2023-05-05T16:07:51.782Z,14.40
2023-05-05T16:10:20.523Z,14.40
2023-05-05T16:12:48.633Z,14.30
2023-05-05T16:15:16.622Z,14.20
2023-05-05T16:17:44.659Z,14.10
2023-05-05T16:20:14.542Z,14.00
2023-05-05T16:22:42.526Z,14.00
2023-05-05T16:25:11.085Z,14.00
2023-05-05T16:27:39.277Z,13.90
2023-05-05T16:30:08.795Z,13.90
2023-05-05T16:32:36.815Z,13.90
2023-05-05T16:35:07.109Z,13.80
2023-05-05T16:37:36.753Z,13.80
2023-05-05T16:40:06.009Z,13.80
2023-05-05T16:42:33.958Z,13.80
2023-05-05T16:45:01.916Z,13.80
2023-05-05T16:47:29.959Z,13.70
2023-05-05T16:49:57.958Z,13.70
2023-05-05T16:52:26.059Z,13.70
2023-05-05T16:54:56.575Z,13.60
2023-05-05T16:57:24.676Z,13.60
2023-05-05T16:59:55.527Z,13.50
2023-05-05T17:02:23.520Z,13.50
2023-05-05T17:04:51.613Z,13.40
2023-05-05T17:07:19.698Z,13.40
2023-05-05T17:09:47.767Z,13.40
2023-05-05T17:12:17.108Z,13.40
2023-05-05T17:14:46.002Z,13.40
2023-05-05T17:17:13.997Z,13.30
2023-05-05T17:19:42.608Z,13.30
2023-05-05T17:22:10.643Z,13.20
2023-05-05T17:24:38.612Z,13.20
2023-05-05T17:27:06.568Z,13.00
2023-05-05T17:29:40.414Z,13.00
2023-05-05T17:32:08.564Z,13.00
2023-05-05T17:34:36.772Z,13.00
2023-05-05T17:37:04.767Z,12.90
2023-05-05T17:39:32.741Z,12.80
2023-05-05T17:42:01.210Z,12.80
2023-05-05T17:44:29.173Z,12.80
2023-05-05T17:46:59.082Z,12.70
2023-05-05T17:49:27.268Z,12.70
2023-05-05T17:51:55.299Z,12.70
2023-05-05T17:54:23.264Z,12.70
2023-05-05T17:56:51.499Z,12.70
2023-05-05T17:59:19.556Z,12.70
2023-05-05T18:01:47.571Z,12.80
2023-05-05T18:04:17.444Z,12.70
2023-05-05T18:06:45.415Z,12.70
2023-05-05T18:09:13.370Z,12.70
2023-05-05T18:11:42.274Z,12.70
2023-05-05T18:14:10.733Z,12.60
2023-05-05T18:16:38.708Z,12.60
2023-05-05T18:19:07.249Z,12.60
2023-05-05T18:21:36.588Z,12.60
2023-05-05T18:24:18.751Z,12.60
2023-05-05T18:26:49.726Z,12.60
2023-05-05T18:29:17.874Z,12.50
2023-05-05T18:31:48.423Z,12.50
2023-05-05T18:34:17.203Z,12.50
2023-05-05T18:36:47.138Z,12.40
2023-05-05T18:39:15.256Z,12.40
2023-05-05T18:41:43.255Z,12.40
2023-05-05T18:44:11.512Z,12.30
2023-05-05T18:46:39.639Z,12.30
2023-05-05T18:49:08.463Z,12.30
2023-05-05T18:51:36.487Z,12.20
2023-05-05T18:54:06.075Z,12.20
2023-05-05T18:56:34.156Z,12.10
2023-05-05T18:59:02.234Z,12.10
2023-05-05T19:01:30.992Z,12.00
2023-05-05T19:03:58.997Z,12.00
2023-05-05T19:06:27.260Z,12.00
2023-05-05T19:08:55.458Z,11.90
2023-05-05T19:11:25.177Z,11.90
2023-05-05T19:13:53.201Z,11.90
2023-05-05T19:16:21.446Z,11.80
2023-05-05T19:18:49.442Z,11.80
2023-05-05T19:21:17.417Z,11.80
2023-05-05T19:23:45.479Z,11.70
2023-05-05T19:26:13.891Z,11.70
2023-05-05T19:28:43.246Z,11.60
2023-05-05T19:31:11.216Z,11.60
2023-05-05T19:33:42.316Z,11.60
2023-05-05T19:36:10.298Z,11.60
2023-05-05T19:38:38.280Z,11.60
2023-05-05T19:41:06.224Z,11.60
2023-05-05T19:43:34.234Z,11.50
2023-05-05T19:46:03.653Z,11.40
2023-05-05T19:48:31.890Z,11.50
2023-05-05T19:50:59.867Z,11.50
2023-05-05T19:53:27.893Z,11.40
2023-05-05T19:55:56.115Z,11.30
2023-05-05T19:58:24.194Z,11.20
2023-05-05T20:00:52.336Z,11.20
2023-05-05T20:03:21.841Z,11.10
2023-05-05T20:05:49.849Z,10.90
2023-05-05T20:08:17.860Z,10.90
2023-05-05T20:10:45.824Z,10.90
2023-05-05T20:13:13.805Z,10.80
2023-05-05T20:15:41.837Z,10.70
2023-05-05T20:18:10.503Z,10.70
2023-05-05T20:20:39.837Z,10.50
2023-05-05T20:23:07.850Z,10.40
2023-05-05T20:25:35.814Z,10.40
2023-05-05T20:28:03.801Z,10.30
2023-05-05T20:30:31.957Z,10.30
2023-05-05T20:32:59.953Z,10.20
2023-05-05T20:35:28.089Z,10.30
2023-05-05T20:37:57.415Z,10.30
2023-05-05T20:40:25.392Z,10.30
2023-05-05T20:42:53.352Z,10.20
2023-05-05T20:45:21.402Z,10.20
2023-05-05T20:47:49.510Z,10.20
2023-05-05T20:50:20.280Z,10.10
2023-05-05T20:52:48.315Z,10.00
2023-05-05T20:55:17.638Z,10.00
2023-05-05T20:57:45.999Z,10.00
2023-05-05T21:00:15.450Z,10.10
2023-05-05T21:02:43.649Z,10.10
2023-05-05T21:05:11.802Z,10.10
2023-05-05T21:07:39.863Z,10.10
2023-05-05T21:10:09.174Z,10.10
2023-05-05T21:12:38.726Z,10.00
2023-05-05T21:15:08.415Z,10.00
2023-05-05T21:17:36.644Z,10.00
2023-05-05T21:20:05.162Z,10.00
2023-05-05T21:22:33.153Z,10.00
2023-05-05T21:25:13.885Z,10.00
2023-05-05T21:27:43.428Z,9.90
2023-05-05T21:30:12.780Z,10.00
2023-05-05T21:32:41.236Z,10.00
2023-05-05T21:35:10.217Z,10.00
2023-05-05T21:37:39.162Z,10.00
2023-05-05T21:40:10.662Z,9.90
2023-05-05T21:42:38.880Z,10.00
2023-05-05T21:45:09.410Z,10.00
2023-05-05T21:47:37.553Z,10.00
2023-05-05T21:50:06.032Z,10.10
2023-05-05T21:52:34.053Z,10.10
2023-05-05T21:55:02.060Z,10.10
2023-05-05T21:57:30.057Z,10.10
2023-05-05T21:59:58.042Z,10.00
2023-05-05T22:02:27.462Z,10.00
2023-05-05T22:04:55.529Z,9.90
2023-05-05T22:07:24.847Z,9.90
2023-05-05T22:09:53.563Z,9.90
2023-05-05T22:12:21.538Z,9.90
2023-05-05T22:14:49.487Z,9.90
2023-05-05T22:17:17.564Z,9.90
2023-05-05T22:19:46.910Z,9.90
2023-05-05T22:22:15.955Z,9.90
2023-05-05T22:24:43.926Z,9.90
2023-05-05T22:27:11.924Z,9.80
2023-05-05T22:29:39.920Z,9.80
2023-05-05T22:32:07.965Z,9.80
2023-05-05T22:34:36.169Z,9.90
2023-05-05T22:37:05.477Z,9.90
2023-05-05T22:39:33.635Z,9.70
2023-05-05T22:42:01.647Z,9.80
2023-05-05T22:44:29.640Z,9.80
2023-05-05T22:46:57.773Z,9.80
2023-05-05T22:49:26.455Z,9.80
2023-05-05T22:51:54.655Z,9.70
2023-05-05T22:54:23.981Z,9.60
2023-05-05T22:56:51.933Z,9.60
2023-05-05T22:59:19.899Z,9.60
2023-05-05T23:01:47.954Z,9.60
2023-05-05T23:04:16.167Z,9.60
2023-05-05T23:06:44.897Z,9.60
2023-05-05T23:09:12.919Z,9.60
2023-05-05T23:11:42.340Z,9.50
2023-05-05T23:14:10.514Z,9.50
2023-05-05T23:16:38.553Z,9.50
2023-05-05T23:19:06.536Z,9.50
2023-05-05T23:21:41.904Z,9.50
2023-05-05T23:24:17.603Z,9.40
2023-05-05T23:26:46.941Z,9.30
2023-05-05T23:29:14.906Z,9.30
2023-05-05T23:31:42.895Z,9.20
2023-05-05T23:34:11.127Z,9.20
2023-05-05T23:36:39.191Z,9.20
2023-05-05T23:39:07.246Z,9.30
2023-05-05T23:41:35.225Z,9.30
2023-05-05T23:44:04.596Z,9.30
2023-05-05T23:46:32.562Z,9.30
2023-05-05T23:49:00.608Z,9.30
2023-05-05T23:51:29.015Z,9.40
2023-05-05T23:53:58.047Z,9.40
2023-05-05T23:56:26.217Z,9.40
2023-05-05T23:58:54.307Z,9.40
